Time;durP1;ratioP1;P1;durP2;ratioP2;P2;SDS_P1;SDS_P2;PMS_P1;PMS_P2;Temp;Humidity;BMP_temperature;BMP_pressure;BME280_temperature;BME280_humidity;BME280_pressure;Samples;Min_cycle;Max_cycle;Signal;HPM_P1;HPM_P2
2022/01/11 00:00:50;;;;;;;27.98;19.67;;;-0.50;99.90;;;;;;5090348;28;20402;-78
2022/01/11 00:03:17;;;;;;;30.83;22.17;;;-0.50;99.90;;;;;;5072069;28;20382;-77
2022/01/11 00:08:28;;;;;;;31.63;21.85;;;-0.50;99.90;;;;;;5072026;28;20082;-76
2022/01/11 00:11:02;;;;;;;30.15;20.00;;;-0.50;99.90;;;;;;5090286;28;20071;-76
2022/01/11 00:13:28;;;;;;;28.15;19.77;;;-0.50;99.90;;;;;;5090114;28;20114;-77
2022/01/11 00:15:53;;;;;;;32.53;20.90;;;-0.50;99.90;;;;;;5089681;28;20135;-77
2022/01/11 00:18:19;;;;;;;27.70;20.88;;;-0.50;99.90;;;;;;5089979;28;20127;-77
2022/01/11 00:20:44;;;;;;;27.42;21.27;;;-0.40;99.90;;;;;;5088804;28;20044;-77
2022/01/11 00:25:38;;;;;;;26.75;19.55;;;-0.40;99.90;;;;;;5089607;28;20124;-77
2022/01/11 00:28:05;;;;;;;29.63;20.92;;;-0.50;99.90;;;;;;5089973;28;20075;-76
2022/01/11 00:30:34;;;;;;;27.15;19.08;;;-0.30;99.90;;;;;;5089386;28;20152;-76
2022/01/11 00:33:03;;;;;;;28.13;19.40;;;-0.50;99.90;;;;;;5089740;28;20035;-76
2022/01/11 00:35:39;;;;;;;29.90;19.92;;;-0.40;99.90;;;;;;5069992;28;20442;-75
2022/01/11 00:38:06;;;;;;;29.33;19.20;;;-0.40;99.90;;;;;;5089725;28;20516;-77
2022/01/11 00:40:32;;;;;;;32.50;17.65;;;-0.40;99.90;;;;;;5089207;28;20062;-77
2022/01/11 00:42:59;;;;;;;31.00;19.77;;;-0.40;99.90;;;;;;5089472;28;20494;-76
2022/01/11 00:45:26;;;;;;;24.77;18.92;;;-0.40;99.90;;;;;;5088868;28;20060;-75
2022/01/11 00:47:52;;;;;;;40.83;20.48;;;-0.40;99.90;;;;;;5071081;28;20048;-77
2022/01/11 00:50:18;;;;;;;27.38;19.25;;;-0.30;99.90;;;;;;5088421;28;20040;-77
2022/01/11 00:52:43;;;;;;;29.42;19.15;;;-0.40;99.90;;;;;;5089431;28;20052;-73
2022/01/11 00:55:10;;;;;;;28.60;21.13;;;-0.30;99.90;;;;;;5055068;28;20081;-78
2022/01/11 00:57:35;;;;;;;27.17;19.45;;;-0.30;99.90;;;;;;5070451;28;20073;-77
2022/01/11 01:00:01;;;;;;;31.10;19.77;;;-0.30;99.90;;;;;;5070864;28;20044;-77
2022/01/11 01:02:26;;;;;;;30.75;18.50;;;-0.30;99.90;;;;;;5088741;28;20032;-76
2022/01/11 01:04:52;;;;;;;25.98;17.98;;;-0.40;99.90;;;;;;5070591;28;20044;-76
2022/01/11 01:07:18;;;;;;;28.77;18.23;;;-0.30;99.90;;;;;;5069145;28;20047;-75
2022/01/11 01:10:00;;;;;;;28.60;18.48;;;-0.20;99.90;;;;;;5089123;28;20105;-75
2022/01/11 01:12:26;;;;;;;29.77;17.73;;;-0.20;99.90;;;;;;5070656;28;20105;-76
2022/01/11 01:14:51;;;;;;;24.60;18.67;;;-0.30;99.90;;;;;;5088439;28;20044;-76
2022/01/11 01:17:17;;;;;;;26.67;17.17;;;-0.30;99.90;;;;;;5088728;28;20048;-76
2022/01/11 01:19:42;;;;;;;28.55;19.13;;;-0.50;99.90;;;;;;5089145;28;20078;-75
2022/01/11 01:22:08;;;;;;;24.33;15.82;;;-0.40;99.90;;;;;;5069578;28;20413;-79
2022/01/11 01:24:34;;;;;;;30.70;17.92;;;-0.40;99.90;;;;;;5088755;28;20043;-79
2022/01/11 01:26:59;;;;;;;26.67;18.00;;;-0.40;99.90;;;;;;5088413;28;20402;-77
2022/01/11 01:29:25;;;;;;;24.17;17.27;;;-0.50;99.90;;;;;;5088174;28;20094;-78
2022/01/11 01:31:51;;;;;;;27.02;17.40;;;-0.40;99.90;;;;;;5070442;28;20040;-80
2022/01/11 01:34:17;;;;;;;27.40;18.73;;;-0.40;99.90;;;;;;5088358;28;20048;-78
2022/01/11 01:36:42;;;;;;;23.33;17.65;;;-0.50;99.90;;;;;;5070097;28;20036;-79
2022/01/11 01:39:08;;;;;;;27.65;19.00;;;-0.60;99.90;;;;;;5088324;28;20044;-78
2022/01/11 01:41:34;;;;;;;30.98;20.08;;;-0.60;99.90;;;;;;5088299;28;20101;-77
2022/01/11 01:44:01;;;;;;;28.00;18.90;;;-0.50;99.90;;;;;;5070121;28;20185;-78
2022/01/11 01:46:27;;;;;;;30.67;20.80;;;-0.50;99.90;;;;;;5088075;28;20062;-78
2022/01/11 01:48:55;;;;;;;30.40;19.05;;;-0.40;99.90;;;;;;5088270;28;20036;-77
2022/01/11 01:51:21;;;;;;;30.90;19.05;;;-0.30;99.90;;;;;;5087146;28;20047;-78
2022/01/11 01:53:49;;;;;;;32.35;19.65;;;-0.30;99.90;;;;;;5088275;28;20044;-76
2022/01/11 01:56:17;;;;;;;38.58;21.88;;;-0.30;99.90;;;;;;5069607;28;20040;-78
2022/01/11 01:58:43;;;;;;;35.78;20.90;;;-0.40;99.90;;;;;;5088280;28;20040;-77
2022/01/11 02:01:12;;;;;;;33.72;22.10;;;-0.30;99.90;;;;;;5088309;28;20494;-78
2022/01/11 02:03:39;;;;;;;32.92;23.13;;;-0.30;99.90;;;;;;5087605;28;20040;-77
2022/01/11 02:06:11;;;;;;;38.30;20.95;;;-0.30;99.90;;;;;;5086914;28;20044;-78
2022/01/11 02:08:38;;;;;;;36.25;19.85;;;-0.30;99.90;;;;;;5087957;28;20050;-78
2022/01/11 02:11:05;;;;;;;36.03;23.92;;;-0.20;99.90;;;;;;5069363;28;20048;-77
2022/01/11 02:13:31;;;;;;;35.63;23.42;;;-0.20;99.90;;;;;;5087741;28;20086;-78
2022/01/11 02:15:57;;;;;;;40.38;22.83;;;-0.30;99.90;;;;;;5087825;28;20067;-77
2022/01/11 02:18:25;;;;;;;39.15;22.75;;;-0.20;99.90;;;;;;5086836;28;20393;-77
2022/01/11 02:20:53;;;;;;;37.28;23.20;;;-0.30;99.90;;;;;;5068593;28;20047;-78
2022/01/11 02:23:20;;;;;;;50.28;22.90;;;-0.10;99.90;;;;;;5087463;28;20139;-76
2022/01/11 02:25:46;;;;;;;33.85;21.48;;;-0.20;99.90;;;;;;5087477;28;20034;-77
2022/01/11 02:28:19;;;;;;;38.05;23.90;;;-0.10;99.90;;;;;;5069668;28;20044;-77
2022/01/11 02:30:46;;;;;;;38.60;25.73;;;-0.10;99.90;;;;;;5069612;28;20601;-77
2022/01/11 02:33:32;;;;;;;36.58;22.45;;;-0.10;99.90;;;;;;5087755;28;20410;-76
2022/01/11 02:35:58;;;;;;;57.13;25.70;;;0.00;99.90;;;;;;5068282;28;20052;-77
2022/01/11 02:38:23;;;;;;;39.88;23.15;;;0.00;99.90;;;;;;5087538;28;20389;-77
2022/01/11 02:40:49;;;;;;;46.65;26.08;;;0.00;99.90;;;;;;5087847;28;20043;-77
2022/01/11 02:43:14;;;;;;;36.65;23.75;;;-0.10;99.90;;;;;;5086827;28;20032;-76
2022/01/11 02:45:40;;;;;;;46.53;24.52;;;-0.10;99.90;;;;;;5087593;28;20057;-76
2022/01/11 02:48:06;;;;;;;36.05;23.13;;;-0.10;99.90;;;;;;5087336;28;20048;-77
2022/01/11 02:50:32;;;;;;;38.20;21.45;;;0.00;99.90;;;;;;5086052;28;20038;-77
2022/01/11 02:52:58;;;;;;;46.50;27.00;;;0.00;99.90;;;;;;5087674;28;20483;-76
2022/01/11 02:55:24;;;;;;;44.95;25.73;;;0.00;99.90;;;;;;5087078;28;20036;-77
2022/01/11 02:57:49;;;;;;;44.97;24.52;;;-0.10;99.90;;;;;;5087497;28;20252;-78
2022/01/11 03:00:18;;;;;;;57.42;28.45;;;0.00;99.90;;;;;;5087006;28;20439;-76
2022/01/11 03:02:44;;;;;;;48.63;25.65;;;-0.10;99.90;;;;;;5069813;28;20063;-75
2022/01/11 03:05:11;;;;;;;46.83;25.65;;;-0.10;99.90;;;;;;5086404;28;20036;-76
2022/01/11 03:07:40;;;;;;;45.20;24.98;;;-0.10;99.90;;;;;;5087291;28;20155;-76
2022/01/11 03:10:52;;;;;;;46.78;27.92;;;0.00;99.90;;;;;;5087569;28;20134;-77
2022/01/11 03:13:04;;;;;;;50.92;27.15;;;0.00;99.90;;;;;;5076255;28;20118;-76
2022/01/11 03:15:30;;;;;;;47.58;25.98;;;0.10;99.90;;;;;;5086931;28;20040;-75
2022/01/11 03:17:56;;;;;;;48.50;26.13;;;0.10;99.90;;;;;;5087058;28;20089;-77
2022/01/11 03:20:21;;;;;;;56.72;28.30;;;0.10;99.90;;;;;;5086015;28;20493;-76
2022/01/11 03:22:47;;;;;;;60.58;29.42;;;0.10;99.90;;;;;;5087276;28;20032;-77
2022/01/11 03:25:13;;;;;;;48.35;25.80;;;0.10;99.90;;;;;;5069164;28;20032;-75
2022/01/11 03:27:40;;;;;;;49.35;25.73;;;0.00;99.90;;;;;;5087446;28;20090;-76
2022/01/11 03:30:06;;;;;;;51.65;26.98;;;0.10;99.90;;;;;;5089048;28;20435;-76
2022/01/11 03:32:32;;;;;;;49.55;25.30;;;0.10;99.90;;;;;;5090640;28;20040;-76
2022/01/11 03:34:57;;;;;;;57.85;29.55;;;0.00;99.90;;;;;;5071471;28;20055;-77
2022/01/11 03:37:23;;;;;;;47.92;26.13;;;0.20;99.90;;;;;;5090225;28;20071;-76
2022/01/11 03:39:49;;;;;;;48.55;26.50;;;0.00;99.90;;;;;;5090828;28;20043;-76
2022/01/11 03:42:15;;;;;;;61.17;27.60;;;0.10;99.90;;;;;;5090174;28;20040;-75
2022/01/11 03:44:41;;;;;;;62.85;28.38;;;0.10;99.90;;;;;;5072495;28;20048;-77
2022/01/11 03:47:07;;;;;;;53.70;28.88;;;0.20;99.90;;;;;;5090383;28;20044;-76
2022/01/11 03:49:33;;;;;;;62.45;31.23;;;0.20;99.90;;;;;;5090345;28;20097;-76
2022/01/11 03:51:59;;;;;;;51.58;28.63;;;0.30;99.90;;;;;;5089531;28;20486;-75
2022/01/11 03:54:28;;;;;;;49.90;28.23;;;0.20;99.90;;;;;;5071965;28;20729;-77
2022/01/11 03:56:54;;;;;;;55.17;29.37;;;0.20;99.90;;;;;;5072188;28;20087;-77
2022/01/11 03:59:21;;;;;;;58.85;30.10;;;0.20;99.90;;;;;;5090180;28;20363;-76
2022/01/11 04:01:47;;;;;;;53.63;30.17;;;0.20;99.90;;;;;;5090940;28;20044;-77
2022/01/11 04:04:14;;;;;;;59.28;29.75;;;0.20;99.90;;;;;;5072594;28;20392;-77
2022/01/11 04:06:40;;;;;;;55.80;29.55;;;0.30;99.90;;;;;;5089588;28;20131;-76
2022/01/11 04:09:08;;;;;;;51.67;30.65;;;0.30;99.90;;;;;;5090037;28;20127;-77
2022/01/11 04:11:34;;;;;;;61.78;31.70;;;0.30;99.90;;;;;;5090088;28;20040;-77
2022/01/11 04:13:59;;;;;;;71.53;29.30;;;0.20;99.90;;;;;;5071786;28;20075;-77
2022/01/11 04:16:25;;;;;;;51.25;28.65;;;0.40;99.90;;;;;;5089786;28;20075;-77
2022/01/11 04:18:51;;;;;;;54.30;28.00;;;0.30;99.90;;;;;;5089926;28;20036;-77
2022/01/11 04:21:16;;;;;;;53.75;28.70;;;0.40;99.90;;;;;;5070802;28;20067;-77
2022/01/11 04:23:42;;;;;;;52.75;26.85;;;0.30;99.90;;;;;;5090213;28;20040;-77
2022/01/11 04:26:08;;;;;;;49.53;28.33;;;0.40;99.90;;;;;;5071455;28;20040;-77
2022/01/11 04:28:33;;;;;;;66.15;32.40;;;0.30;99.90;;;;;;5089592;28;20040;-76
2022/01/11 04:31:00;;;;;;;61.13;29.38;;;0.30;99.90;;;;;;5089471;28;20099;-76
2022/01/11 04:33:27;;;;;;;56.85;28.75;;;0.30;99.90;;;;;;5089361;28;20581;-76
2022/01/11 04:35:54;;;;;;;56.70;29.00;;;0.30;99.90;;;;;;5088367;28;20047;-76
2022/01/11 04:38:25;;;;;;;63.03;33.50;;;0.30;99.90;;;;;;5071431;28;20578;-77
2022/01/11 04:40:51;;;;;;;49.90;27.30;;;0.30;99.90;;;;;;5070541;28;20082;-77
2022/01/11 04:43:17;;;;;;;48.47;27.35;;;0.30;99.90;;;;;;5089223;28;20112;-75
2022/01/11 04:45:43;;;;;;;50.45;29.50;;;0.30;99.90;;;;;;5089331;28;20595;-77
2022/01/11 04:48:09;;;;;;;53.75;29.90;;;0.40;99.90;;;;;;5089736;28;20108;-77
2022/01/11 04:50:36;;;;;;;47.13;24.73;;;0.20;99.90;;;;;;5087941;28;20040;-77
2022/01/11 04:53:02;;;;;;;52.10;26.73;;;0.30;99.90;;;;;;5089408;28;20048;-76
2022/01/11 04:55:28;;;;;;;54.75;28.65;;;0.30;99.90;;;;;;5070872;28;20494;-78
2022/01/11 04:57:54;;;;;;;49.33;28.25;;;0.20;99.90;;;;;;5089510;28;20062;-76
2022/01/11 05:00:22;;;;;;;60.03;29.40;;;0.30;99.90;;;;;;5070820;28;20439;-76
2022/01/11 05:02:47;;;;;;;50.42;29.48;;;0.20;99.90;;;;;;5089204;28;20067;-76
2022/01/11 05:05:15;;;;;;;49.15;26.60;;;0.20;99.90;;;;;;5088180;28;20064;-72
2022/01/11 05:07:45;;;;;;;48.08;26.73;;;0.20;99.90;;;;;;5089285;28;20133;-76
2022/01/11 05:10:12;;;;;;;55.78;29.48;;;0.30;99.90;;;;;;5088873;28;20052;-76
2022/01/11 05:12:38;;;;;;;50.13;27.08;;;0.30;99.90;;;;;;5088748;28;20059;-75
2022/01/11 05:15:10;;;;;;;50.85;24.92;;;0.30;99.90;;;;;;5070633;28;20054;-77
2022/01/11 05:17:36;;;;;;;46.17;28.38;;;0.20;99.90;;;;;;5088710;28;20040;-76
2022/01/11 05:20:04;;;;;;;43.42;25.23;;;0.20;99.90;;;;;;5087880;28;20415;-77
2022/01/11 05:22:30;;;;;;;45.70;23.38;;;0.20;99.90;;;;;;5088323;28;20048;-76
2022/01/11 05:24:55;;;;;;;46.30;24.27;;;0.20;99.90;;;;;;5070218;28;20046;-77
2022/01/11 05:27:21;;;;;;;60.33;26.13;;;0.10;99.90;;;;;;5088491;28;20052;-77
2022/01/11 05:29:47;;;;;;;42.10;23.17;;;0.20;99.90;;;;;;5088551;28;20074;-76
2022/01/11 05:32:12;;;;;;;42.30;22.05;;;0.20;99.90;;;;;;5088839;28;20496;-77
2022/01/11 05:34:38;;;;;;;52.83;23.45;;;0.10;99.90;;;;;;5087338;28;20044;-76
2022/01/11 05:37:04;;;;;;;39.63;24.33;;;0.10;99.90;;;;;;5088323;28;20579;-76
2022/01/11 05:39:29;;;;;;;44.05;26.02;;;0.20;99.90;;;;;;5088229;28;20036;-76
2022/01/11 05:41:55;;;;;;;49.78;26.25;;;0.20;99.90;;;;;;5088562;28;20089;-77
2022/01/11 05:44:22;;;;;;;42.58;23.38;;;0.10;99.90;;;;;;5088069;28;20052;-77
2022/01/11 05:46:48;;;;;;;45.00;24.38;;;0.10;99.90;;;;;;5088432;28;20417;-77
2022/01/11 05:49:14;;;;;;;48.05;25.90;;;0.10;99.90;;;;;;5087927;28;20044;-74
2022/01/11 05:51:39;;;;;;;44.78;25.25;;;0.20;99.90;;;;;;5087710;28;20560;-77
2022/01/11 05:54:05;;;;;;;39.50;22.70;;;0.10;99.90;;;;;;5087866;28;20055;-77
2022/01/11 05:56:30;;;;;;;45.20;24.25;;;0.10;99.90;;;;;;5088100;28;20036;-78
2022/01/11 05:58:56;;;;;;;51.03;23.38;;;0.10;99.90;;;;;;5088122;28;20040;-78
2022/01/11 06:01:23;;;;;;;42.38;21.80;;;0.10;99.90;;;;;;5087935;28;20036;-77
2022/01/11 06:03:49;;;;;;;51.72;23.92;;;0.10;99.90;;;;;;5088112;28;20416;-76
2022/01/11 06:06:15;;;;;;;42.22;22.10;;;0.10;99.90;;;;;;5086587;28;20032;-77
2022/01/11 06:08:40;;;;;;;44.58;24.90;;;0.10;99.90;;;;;;5088221;28;20046;-77
2022/01/11 06:11:07;;;;;;;40.85;23.05;;;0.10;99.90;;;;;;5069509;28;20489;-77
2022/01/11 06:13:33;;;;;;;43.30;22.67;;;0.10;99.90;;;;;;5088215;28;20040;-77
2022/01/11 06:15:58;;;;;;;42.72;21.60;;;0.00;99.90;;;;;;5087482;28;20393;-78
2022/01/11 06:18:24;;;;;;;38.83;19.50;;;0.10;99.90;;;;;;5087525;28;20047;-77
2022/01/11 06:20:50;;;;;;;46.60;24.63;;;0.00;99.90;;;;;;5068913;28;20039;-77
2022/01/11 06:23:15;;;;;;;41.30;24.05;;;0.00;99.90;;;;;;5069153;28;20545;-77
2022/01/11 06:25:41;;;;;;;43.13;24.10;;;0.00;99.90;;;;;;5070364;28;20398;-77
2022/01/11 06:28:07;;;;;;;40.55;23.88;;;0.00;99.90;;;;;;5069367;28;20238;-77
2022/01/11 06:30:32;;;;;;;44.97;21.33;;;0.00;99.90;;;;;;5052879;28;20072;-77
2022/01/11 06:32:58;;;;;;;40.13;21.58;;;0.00;99.90;;;;;;5069767;28;20055;-77
2022/01/11 06:35:24;;;;;;;38.53;17.75;;;0.00;99.90;;;;;;5086287;28;20566;-77
2022/01/11 06:37:51;;;;;;;39.42;22.25;;;0.00;99.90;;;;;;5069472;28;20052;-78
2022/01/11 06:40:19;;;;;;;39.80;20.88;;;0.00;99.90;;;;;;5087026;28;20028;-77
2022/01/11 06:42:46;;;;;;;42.95;20.33;;;0.00;99.90;;;;;;5087477;28;20044;-77
2022/01/11 06:45:12;;;;;;;34.45;19.90;;;-0.10;99.90;;;;;;5087261;28;20044;-77
2022/01/11 06:47:39;;;;;;;43.28;21.33;;;-0.10;99.90;;;;;;5087331;28;20394;-76
2022/01/11 06:50:05;;;;;;;39.80;21.05;;;-0.20;99.90;;;;;;5086325;28;20095;-75
2022/01/11 06:52:31;;;;;;;37.92;21.08;;;-0.10;99.90;;;;;;5087494;28;20048;-75
2022/01/11 06:54:56;;;;;;;39.45;17.40;;;-0.20;99.90;;;;;;5069316;28;20046;-77
2022/01/11 06:57:22;;;;;;;32.95;17.63;;;-0.10;99.90;;;;;;5087229;28;20070;-77
2022/01/11 06:59:47;;;;;;;30.98;18.48;;;-0.10;99.90;;;;;;5069125;28;20048;-75
2022/01/11 07:02:13;;;;;;;37.47;20.27;;;-0.10;99.90;;;;;;5069364;28;20071;-76
2022/01/11 07:04:39;;;;;;;37.10;20.20;;;-0.20;99.90;;;;;;5070459;28;20372;-76
2022/01/11 07:07:05;;;;;;;37.05;18.70;;;-0.30;99.90;;;;;;5073039;28;20039;-77
2022/01/11 07:09:31;;;;;;;36.35;18.92;;;-0.20;99.90;;;;;;5091155;28;20047;-78
2022/01/11 07:11:57;;;;;;;33.70;19.92;;;-0.30;99.90;;;;;;5091565;28;20373;-76
2022/01/11 07:14:23;;;;;;;32.08;18.02;;;-0.20;99.90;;;;;;5072419;28;20044;-77
2022/01/11 07:16:48;;;;;;;35.70;19.58;;;-0.30;99.90;;;;;;5073052;28;20040;-76
2022/01/11 07:19:18;;;;;;;35.58;17.85;;;-0.30;99.90;;;;;;5071430;28;20044;-76
2022/01/11 07:21:44;;;;;;;33.25;18.70;;;-0.30;99.90;;;;;;5091152;28;20044;-76
2022/01/11 07:24:15;;;;;;;37.50;18.73;;;-0.20;99.90;;;;;;5072512;28;20087;-75
2022/01/11 07:26:41;;;;;;;32.88;20.40;;;-0.40;99.90;;;;;;5091127;28;20111;-76
2022/01/11 07:29:07;;;;;;;30.55;17.80;;;-0.30;99.90;;;;;;5090854;28;20070;-76
2022/01/11 07:31:38;;;;;;;29.67;19.17;;;-0.30;99.90;;;;;;5090179;28;20044;-76
2022/01/11 07:34:05;;;;;;;33.97;17.70;;;-0.30;99.90;;;;;;5089545;28;20078;-77
2022/01/11 07:36:30;;;;;;;36.08;18.80;;;-0.30;99.90;;;;;;5071866;28;20047;-76
2022/01/11 07:38:56;;;;;;;33.55;20.73;;;-0.30;99.90;;;;;;5090450;28;20433;-76
2022/01/11 07:41:22;;;;;;;35.20;21.30;;;-0.40;99.90;;;;;;5071757;28;20036;-76
2022/01/11 07:43:47;;;;;;;30.30;19.15;;;-0.40;99.90;;;;;;5072147;28;20091;-76
2022/01/11 07:46:13;;;;;;;35.78;19.90;;;-0.30;99.90;;;;;;5090611;28;20048;-76
2022/01/11 07:48:39;;;;;;;29.65;20.33;;;-0.40;99.90;;;;;;5090857;28;20067;-77
2022/01/11 07:51:04;;;;;;;36.97;17.75;;;-0.50;99.90;;;;;;5071427;28;20040;-76
2022/01/11 07:53:30;;;;;;;30.88;18.60;;;-0.40;99.90;;;;;;5090132;28;20444;-76
2022/01/11 07:55:56;;;;;;;31.35;17.50;;;-0.50;99.90;;;;;;5071980;28;20490;-75
2022/01/11 07:58:21;;;;;;;34.58;19.88;;;-0.40;99.90;;;;;;5090126;28;20044;-75
2022/01/11 08:00:47;;;;;;;29.05;20.27;;;-0.40;99.90;;;;;;5072140;28;20100;-77
2022/01/11 08:03:13;;;;;;;33.20;20.05;;;-0.40;99.90;;;;;;5072233;28;20040;-77
2022/01/11 08:05:39;;;;;;;33.38;19.50;;;-0.30;99.90;;;;;;5071052;28;20043;-76
2022/01/11 08:08:05;;;;;;;33.72;18.17;;;-0.40;99.90;;;;;;5089993;28;20059;-76
2022/01/11 08:10:31;;;;;;;33.15;18.77;;;-0.50;99.90;;;;;;5089389;28;20524;-75
2022/01/11 08:12:57;;;;;;;33.42;18.65;;;-0.50;99.90;;;;;;5090055;28;20048;-76
2022/01/11 08:15:22;;;;;;;40.42;21.95;;;-0.50;99.90;;;;;;5089300;28;20036;-77
2022/01/11 08:17:49;;;;;;;36.08;19.60;;;-0.40;99.90;;;;;;5089881;28;20040;-76
2022/01/11 08:20:16;;;;;;;31.42;18.13;;;-0.40;99.90;;;;;;5088218;28;20054;-76
2022/01/11 08:22:41;;;;;;;29.27;18.20;;;-0.50;99.90;;;;;;5089774;28;20169;-75
2022/01/11 08:25:08;;;;;;;36.25;19.27;;;-0.50;99.90;;;;;;5089298;28;20439;-76
2022/01/11 08:27:34;;;;;;;37.47;21.40;;;-0.60;99.90;;;;;;5089096;28;20494;-75
2022/01/11 08:30:01;;;;;;;33.58;18.70;;;-0.50;99.90;;;;;;5089083;28;20271;-75
2022/01/11 08:32:27;;;;;;;37.17;19.33;;;-0.60;99.90;;;;;;5089204;28;20115;-76
2022/01/11 08:34:52;;;;;;;39.72;22.60;;;-0.50;99.90;;;;;;5088219;28;20127;-76
2022/01/11 08:37:18;;;;;;;32.88;20.23;;;-0.50;99.90;;;;;;5088787;28;20162;-76
2022/01/11 08:39:44;;;;;;;38.63;22.35;;;-0.50;99.90;;;;;;5089180;28;20043;-73
2022/01/11 08:42:13;;;;;;;39.47;22.50;;;-0.60;99.90;;;;;;5089120;28;20555;-76
2022/01/11 08:44:45;;;;;;;39.83;21.48;;;-0.50;99.90;;;;;;5070774;28;20054;-75
2022/01/11 08:47:12;;;;;;;39.90;21.98;;;-0.50;99.90;;;;;;5088988;28;20658;-75
2022/01/11 08:49:37;;;;;;;35.08;19.73;;;-0.50;99.90;;;;;;5087683;28;20040;-76
2022/01/11 08:52:03;;;;;;;39.85;21.05;;;-0.50;99.90;;;;;;5088908;28;20062;-76
2022/01/11 08:54:29;;;;;;;35.55;20.50;;;-0.40;99.90;;;;;;5070346;28;20052;-76
2022/01/11 08:56:55;;;;;;;38.15;20.77;;;-0.50;99.90;;;;;;5054126;28;20125;-76
2022/01/11 08:59:23;;;;;;;39.80;21.83;;;-0.50;99.90;;;;;;5088236;28;20065;-77
2022/01/11 09:01:49;;;;;;;42.38;23.15;;;-0.50;99.90;;;;;;5088844;28;20036;-77
2022/01/11 09:04:16;;;;;;;43.17;22.38;;;-0.40;99.90;;;;;;5087495;28;20441;-76
2022/01/11 09:06:42;;;;;;;41.35;21.20;;;-0.40;99.90;;;;;;5088815;28;20050;-75
2022/01/11 09:09:09;;;;;;;42.85;23.52;;;-0.40;99.90;;;;;;5088254;28;20112;-76
2022/01/11 09:11:34;;;;;;;39.40;20.60;;;-0.50;99.90;;;;;;5088227;28;20048;-76
2022/01/11 09:14:00;;;;;;;40.60;21.83;;;-0.40;99.90;;;;;;5053435;28;20065;-77
2022/01/11 09:16:26;;;;;;;49.50;22.50;;;-0.30;99.90;;;;;;5088261;28;20448;-76
2022/01/11 09:18:51;;;;;;;42.25;21.40;;;-0.30;99.90;;;;;;5069247;28;20040;-77
2022/01/11 09:21:20;;;;;;;41.83;22.00;;;-0.30;99.90;;;;;;5087707;28;20043;-76
2022/01/11 09:23:47;;;;;;;35.78;23.58;;;-0.30;99.90;;;;;;5070303;28;20048;-77
2022/01/11 09:26:13;;;;;;;40.58;23.95;;;-0.30;99.90;;;;;;5070659;28;20044;-77
2022/01/11 09:28:39;;;;;;;40.42;23.17;;;-0.30;99.90;;;;;;5069490;28;20040;-77
2022/01/11 09:31:05;;;;;;;44.58;24.27;;;-0.40;99.90;;;;;;5088062;28;20036;-77
2022/01/11 09:33:31;;;;;;;45.50;22.58;;;-0.30;99.90;;;;;;5069398;28;20032;-76
2022/01/11 09:35:56;;;;;;;43.10;21.73;;;-0.30;99.90;;;;;;5087452;28;20409;-78
2022/01/11 09:38:23;;;;;;;41.15;24.25;;;-0.20;99.90;;;;;;5087709;28;20036;-76
2022/01/11 09:40:51;;;;;;;42.25;25.23;;;-0.30;99.90;;;;;;5069582;28;20052;-76
2022/01/11 09:43:23;;;;;;;39.78;24.77;;;-0.20;99.90;;;;;;5087728;28;20039;-76
2022/01/11 09:45:50;;;;;;;46.25;25.38;;;-0.20;99.90;;;;;;5087714;28;20047;-76
2022/01/11 09:48:27;;;;;;;47.00;24.55;;;-0.20;99.90;;;;;;5087600;28;20081;-76
2022/01/11 09:50:53;;;;;;;45.70;24.33;;;-0.10;99.90;;;;;;5086793;28;20040;-76
2022/01/11 09:53:19;;;;;;;44.22;25.17;;;-0.10;99.90;;;;;;5087347;28;20087;-76
2022/01/11 09:55:45;;;;;;;46.17;25.55;;;0.00;99.90;;;;;;5069315;28;20204;-75
2022/01/11 09:58:13;;;;;;;46.13;28.08;;;0.00;99.90;;;;;;5087808;28;20047;-75
2022/01/11 10:00:40;;;;;;;53.75;29.20;;;0.10;99.90;;;;;;5087688;28;20032;-76
2022/01/11 10:03:07;;;;;;;53.05;28.33;;;0.10;99.90;;;;;;5069393;28;20054;-77
2022/01/11 10:05:33;;;;;;;49.15;27.83;;;0.10;99.90;;;;;;5086126;28;20119;-77
2022/01/11 10:07:59;;;;;;;44.30;26.77;;;0.30;99.90;;;;;;5069247;28;20093;-76
2022/01/11 10:10:26;;;;;;;45.58;25.33;;;0.10;99.90;;;;;;5087078;28;20078;-76
2022/01/11 10:13:03;;;;;;;54.53;26.67;;;0.30;99.90;;;;;;5068991;28;20525;-76
2022/01/11 10:15:36;;;;;;;50.28;28.35;;;0.30;99.90;;;;;;5086808;28;20036;-77
2022/01/11 10:18:03;;;;;;;42.35;26.80;;;0.30;99.90;;;;;;5068992;28;20048;-76
2022/01/11 10:20:29;;;;;;;54.20;29.38;;;0.20;99.90;;;;;;5086010;28;20036;-76
2022/01/11 10:22:56;;;;;;;48.35;26.17;;;0.30;99.90;;;;;;5069114;28;20048;-76
2022/01/11 10:25:23;;;;;;;47.45;26.80;;;0.40;99.90;;;;;;5086957;28;20078;-77
2022/01/11 10:28:03;;;;;;;46.65;28.45;;;0.50;99.90;;;;;;5087255;28;20517;-78
2022/01/11 10:30:30;;;;;;;45.33;25.83;;;0.50;99.90;;;;;;5086730;28;20547;-76
2022/01/11 10:33:00;;;;;;;42.70;26.25;;;0.60;99.90;;;;;;5087071;28;20490;-77
2022/01/11 10:35:28;;;;;;;;;;;0.80;99.90;;;;;;5086353;28;20036;-77
2022/01/11 10:37:56;;;;;;;42.38;22.85;;;0.70;99.90;;;;;;5068975;28;19927;-76
2022/01/11 10:40:38;;;;;;;43.67;26.48;;;0.80;99.90;;;;;;5089901;28;20142;-77
2022/01/11 10:43:08;;;;;;;49.75;27.48;;;0.90;99.90;;;;;;5073441;28;20044;-77
2022/01/11 10:45:37;;;;;;;43.65;26.95;;;1.10;99.90;;;;;;5090520;28;20162;-77
2022/01/11 10:48:10;;;;;;;45.10;26.02;;;1.20;99.90;;;;;;5073166;28;20134;-78
2022/01/11 10:50:42;;;;;;;43.83;26.25;;;1.20;99.90;;;;;;5072092;28;20044;-77
2022/01/11 10:53:17;;;;;;;40.13;25.08;;;1.40;99.90;;;;;;5091140;28;20048;-77
2022/01/11 10:55:48;;;;;;;44.25;26.60;;;1.50;99.90;;;;;;5073411;28;20089;-77
2022/01/11 10:58:14;;;;;;;41.85;26.33;;;1.60;99.90;;;;;;5072688;28;20059;-72
2022/01/11 11:00:43;;;;;;;40.72;24.35;;;1.60;99.90;;;;;;5091143;28;20032;-77
2022/01/11 11:03:13;;;;;;;40.40;26.17;;;1.70;99.90;;;;;;5073343;28;20448;-77
2022/01/11 11:05:51;;;;;;;36.92;23.25;;;1.60;99.90;;;;;;5071711;28;20089;-76
2022/01/11 11:08:20;;;;;;;39.97;23.77;;;1.70;99.90;;;;;;5072630;28;20547;-77
2022/01/11 11:11:07;;;;;;;35.47;22.13;;;1.70;99.90;;;;;;5090694;28;20051;-77
2022/01/11 11:13:44;;;;;;;34.97;23.25;;;1.90;99.90;;;;;;5090692;28;20067;-78
2022/01/11 11:16:17;;;;;;;31.25;19.77;;;2.00;99.90;;;;;;5055928;28;20044;-77
2022/01/11 11:18:56;;;;;;;36.42;23.70;;;2.00;99.90;;;;;;5089961;28;20058;-77
2022/01/11 11:21:24;;;;;;;29.47;19.80;;;2.00;99.90;;;;;;5072108;28;20048;-77
2022/01/11 11:23:59;;;;;;;35.58;20.88;;;2.00;99.90;;;;;;5072411;28;20294;-77
2022/01/11 11:26:38;;;;;;;34.55;23.23;;;2.20;99.90;;;;;;5072523;28;20044;-77
2022/01/11 11:29:10;;;;;;;40.05;24.02;;;2.10;99.90;;;;;;5072221;28;20078;-76
2022/01/11 11:31:36;;;;;;;33.08;23.25;;;2.20;99.90;;;;;;5090064;28;20036;-77
2022/01/11 11:34:03;;;;;;;32.35;20.10;;;2.30;99.90;;;;;;5089756;28;20169;-78
2022/01/11 11:36:30;;;;;;;31.80;20.23;;;2.30;99.90;;;;;;5090441;28;20044;-78
2022/01/11 11:39:11;;;;;;;28.98;20.20;;;2.20;99.90;;;;;;5090486;28;20074;-78
2022/01/11 11:41:47;;;;;;;29.42;18.38;;;2.30;99.90;;;;;;5071848;28;20079;-78
2022/01/11 11:44:25;;;;;;;30.55;19.48;;;2.40;99.90;;;;;;5072216;28;20058;-78
2022/01/11 11:46:56;;;;;;;30.65;19.70;;;2.40;99.90;;;;;;5055148;28;20067;-77
2022/01/11 11:49:40;;;;;;;33.33;20.85;;;2.40;99.90;;;;;;5088608;28;20062;-79
2022/01/11 11:52:20;;;;;;;28.92;18.80;;;2.50;99.90;;;;;;5071917;28;20493;-78
2022/01/11 11:54:52;;;;;;;31.77;19.30;;;2.60;99.90;;;;;;5072004;28;20040;-77
2022/01/11 11:57:19;;;;;;;32.03;22.17;;;2.60;99.90;;;;;;5090093;28;20051;-77
2022/01/11 11:59:58;;;;;;;26.45;17.40;;;2.60;99.90;;;;;;5071887;28;20040;-77
2022/01/11 12:02:34;;;;;;;26.25;17.10;;;2.60;99.90;;;;;;5071764;28;20121;-77
2022/01/11 12:05:00;;;;;;;26.17;17.48;;;2.70;99.90;;;;;;5070533;28;20036;-76
2022/01/11 12:07:32;;;;;;;38.72;20.05;;;2.60;99.90;;;;;;5089596;28;20298;-78
2022/01/11 12:09:59;;;;;;;29.75;17.65;;;2.70;99.90;;;;;;5089850;28;20067;-78
2022/01/11 12:12:49;;;;;;;26.55;17.25;;;2.70;99.90;;;;;;5089617;28;20051;-77
2022/01/11 12:15:33;;;;;;;31.83;19.23;;;2.70;99.90;;;;;;5070974;28;20044;-77
2022/01/11 12:17:58;;;;;;;28.67;18.52;;;2.60;99.90;;;;;;5089723;28;20066;-79
2022/01/11 12:20:50;;;;;;;31.05;19.92;;;2.70;99.90;;;;;;5088420;28;20493;-76
2022/01/11 12:23:35;;;;;;;27.65;16.15;;;2.60;99.90;;;;;;5089103;28;20406;-78
2022/01/11 12:26:37;;;;;;;28.67;18.45;;;2.70;99.90;;;;;;5089259;28;20036;-78
2022/01/11 12:29:03;;;;;;;27.25;16.85;;;2.70;99.90;;;;;;4987534;28;20057;-78
2022/01/11 12:31:35;;;;;;;25.13;16.25;;;2.70;99.90;;;;;;5068472;28;20064;-77
2022/01/11 12:34:02;;;;;;;30.15;16.45;;;2.70;99.90;;;;;;5088208;28;20516;-77
2022/01/11 12:36:50;;;;;;;29.25;18.40;;;2.80;99.90;;;;;;5089188;28;20036;-79
2022/01/11 12:39:16;;;;;;;24.20;16.67;;;2.80;99.90;;;;;;5089034;28;20105;-77
2022/01/11 12:41:42;;;;;;;33.17;17.05;;;2.80;99.90;;;;;;5089420;28;20435;-78